sensor_id;sensor_type;location;lat;lon;timestamp;P1;durP1;ratioP1;P2;durP2;ratioP2
18796;SDS011;9526;52.612;13.300;2023-01-29T00:01:06;18.17;;;8.30;;
18796;SDS011;9526;52.612;13.300;2023-01-29T00:03:31;15.67;;;8.77;;
18796;SDS011;9526;52.612;13.300;2023-01-29T00:05:55;19.80;;;9.40;;
18796;SDS011;9526;52.612;13.300;2023-01-29T00:08:18;21.17;;;8.53;;
18796;SDS011;9526;52.612;13.300;2023-01-29T00:10:42;16.73;;;9.17;;
18796;SDS011;9526;52.612;13.300;2023-01-29T00:13:06;18.00;;;9.90;;
18796;SDS011;9526;52.612;13.300;2023-01-29T00:15:30;16.80;;;9.27;;
18796;SDS011;9526;52.612;13.300;2023-01-29T00:17:55;18.47;;;10.30;;
18796;SDS011;9526;52.612;13.300;2023-01-29T00:20:18;16.97;;;9.27;;
18796;SDS011;9526;52.612;13.300;2023-01-29T00:22:42;17.37;;;9.83;;
18796;SDS011;9526;52.612;13.300;2023-01-29T00:25:07;19.33;;;10.50;;
18796;SDS011;9526;52.612;13.300;2023-01-29T00:27:32;16.60;;;9.40;;
18796;SDS011;9526;52.612;13.300;2023-01-29T00:29:57;17.93;;;9.23;;
18796;SDS011;9526;52.612;13.300;2023-01-29T00:32:32;19.97;;;10.57;;
18796;SDS011;9526;52.612;13.300;2023-01-29T00:34:57;20.00;;;9.33;;
18796;SDS011;9526;52.612;13.300;2023-01-29T00:37:21;19.40;;;10.43;;
18796;SDS011;9526;52.612;13.300;2023-01-29T00:39:45;20.80;;;10.77;;
18796;SDS011;9526;52.612;13.300;2023-01-29T00:42:08;21.33;;;10.93;;
18796;SDS011;9526;52.612;13.300;2023-01-29T00:44:49;10.10;;;5.47;;
18796;SDS011;9526;52.612;13.300;2023-01-29T00:47:19;22.67;;;11.80;;
18796;SDS011;9526;52.612;13.300;2023-01-29T00:49:54;23.77;;;11.80;;
18796;SDS011;9526;52.612;13.300;2023-01-29T00:52:19;24.73;;;12.40;;
18796;SDS011;9526;52.612;13.300;2023-01-29T00:54:45;24.07;;;12.70;;
18796;SDS011;9526;52.612;13.300;2023-01-29T00:57:09;25.07;;;12.73;;
18796;SDS011;9526;52.612;13.300;2023-01-29T00:59:33;23.00;;;11.67;;
18796;SDS011;9526;52.612;13.300;2023-01-29T01:01:57;27.97;;;13.27;;
18796;SDS011;9526;52.612;13.300;2023-01-29T01:04:38;24.40;;;13.43;;
18796;SDS011;9526;52.612;13.300;2023-01-29T01:07:02;24.27;;;12.93;;
18796;SDS011;9526;52.612;13.300;2023-01-29T01:09:27;26.57;;;13.07;;
18796;SDS011;9526;52.612;13.300;2023-01-29T01:12:08;29.60;;;13.43;;
18796;SDS011;9526;52.612;13.300;2023-01-29T01:14:32;31.77;;;13.77;;
18796;SDS011;9526;52.612;13.300;2023-01-29T01:16:57;29.27;;;15.13;;
18796;SDS011;9526;52.612;13.300;2023-01-29T01:19:20;26.47;;;14.00;;
18796;SDS011;9526;52.612;13.300;2023-01-29T01:21:44;27.50;;;13.63;;
18796;SDS011;9526;52.612;13.300;2023-01-29T01:24:08;25.23;;;14.20;;
18796;SDS011;9526;52.612;13.300;2023-01-29T01:26:34;31.90;;;15.27;;
18796;SDS011;9526;52.612;13.300;2023-01-29T01:28:57;33.33;;;15.60;;
18796;SDS011;9526;52.612;13.300;2023-01-29T01:31:21;29.23;;;14.67;;
18796;SDS011;9526;52.612;13.300;2023-01-29T01:33:45;28.93;;;14.30;;
18796;SDS011;9526;52.612;13.300;2023-01-29T01:36:09;31.97;;;14.63;;
18796;SDS011;9526;52.612;13.300;2023-01-29T01:38:35;25.70;;;13.60;;
18796;SDS011;9526;52.612;13.300;2023-01-29T01:41:05;29.70;;;14.07;;
18796;SDS011;9526;52.612;13.300;2023-01-29T01:46:16;35.07;;;15.20;;
18796;SDS011;9526;52.612;13.300;2023-01-29T01:48:40;29.80;;;15.30;;
18796;SDS011;9526;52.612;13.300;2023-01-29T01:51:05;26.27;;;12.70;;
18796;SDS011;9526;52.612;13.300;2023-01-29T01:53:29;30.97;;;14.23;;
18796;SDS011;9526;52.612;13.300;2023-01-29T01:56:00;32.53;;;16.27;;
18796;SDS011;9526;52.612;13.300;2023-01-29T01:58:29;34.43;;;16.20;;
18796;SDS011;9526;52.612;13.300;2023-01-29T02:00:58;32.97;;;16.27;;
18796;SDS011;9526;52.612;13.300;2023-01-29T02:03:22;31.43;;;15.60;;
18796;SDS011;9526;52.612;13.300;2023-01-29T02:06:05;29.13;;;14.37;;
18796;SDS011;9526;52.612;13.300;2023-01-29T02:08:50;33.20;;;16.07;;
18796;SDS011;9526;52.612;13.300;2023-01-29T02:11:37;33.57;;;15.23;;
18796;SDS011;9526;52.612;13.300;2023-01-29T02:14:01;32.50;;;15.33;;
18796;SDS011;9526;52.612;13.300;2023-01-29T02:16:26;36.20;;;16.30;;
18796;SDS011;9526;52.612;13.300;2023-01-29T02:18:50;30.50;;;15.90;;
18796;SDS011;9526;52.612;13.300;2023-01-29T02:21:19;31.70;;;16.70;;
18796;SDS011;9526;52.612;13.300;2023-01-29T02:24:20;36.30;;;15.87;;
18796;SDS011;9526;52.612;13.300;2023-01-29T02:27:13;31.10;;;16.27;;
18796;SDS011;9526;52.612;13.300;2023-01-29T02:29:45;34.03;;;16.53;;
18796;SDS011;9526;52.612;13.300;2023-01-29T02:32:19;31.17;;;16.33;;
18796;SDS011;9526;52.612;13.300;2023-01-29T02:34:52;32.40;;;14.80;;
18796;SDS011;9526;52.612;13.300;2023-01-29T02:37:53;35.90;;;17.03;;
18796;SDS011;9526;52.612;13.300;2023-01-29T02:40:27;31.97;;;16.33;;
18796;SDS011;9526;52.612;13.300;2023-01-29T02:43:00;33.23;;;16.23;;
18796;SDS011;9526;52.612;13.300;2023-01-29T02:45:32;25.77;;;12.03;;
18796;SDS011;9526;52.612;13.300;2023-01-29T02:48:05;33.33;;;16.30;;
18796;SDS011;9526;52.612;13.300;2023-01-29T02:50:33;33.87;;;17.37;;
18796;SDS011;9526;52.612;13.300;2023-01-29T02:53:05;33.10;;;16.43;;
18796;SDS011;9526;52.612;13.300;2023-01-29T02:55:37;34.23;;;16.03;;
18796;SDS011;9526;52.612;13.300;2023-01-29T02:58:08;35.83;;;16.67;;
18796;SDS011;9526;52.612;13.300;2023-01-29T03:00:39;33.33;;;17.53;;
18796;SDS011;9526;52.612;13.300;2023-01-29T03:03:09;36.90;;;16.87;;
18796;SDS011;9526;52.612;13.300;2023-01-29T03:05:39;35.53;;;16.97;;
18796;SDS011;9526;52.612;13.300;2023-01-29T03:08:31;30.53;;;16.13;;
18796;SDS011;9526;52.612;13.300;2023-01-29T03:11:04;36.83;;;16.23;;
18796;SDS011;9526;52.612;13.300;2023-01-29T03:13:32;29.40;;;16.43;;
18796;SDS011;9526;52.612;13.300;2023-01-29T03:16:05;35.47;;;16.97;;
18796;SDS011;9526;52.612;13.300;2023-01-29T03:18:39;29.03;;;15.60;;
18796;SDS011;9526;52.612;13.300;2023-01-29T03:21:13;30.20;;;15.57;;
18796;SDS011;9526;52.612;13.300;2023-01-29T03:23:58;33.73;;;15.80;;
18796;SDS011;9526;52.612;13.300;2023-01-29T03:26:42;33.70;;;16.10;;
18796;SDS011;9526;52.612;13.300;2023-01-29T03:29:29;37.73;;;17.93;;
18796;SDS011;9526;52.612;13.300;2023-01-29T03:32:13;33.43;;;15.50;;
18796;SDS011;9526;52.612;13.300;2023-01-29T03:34:41;30.93;;;13.97;;
18796;SDS011;9526;52.612;13.300;2023-01-29T03:37:13;37.90;;;16.77;;
18796;SDS011;9526;52.612;13.300;2023-01-29T03:39:43;35.80;;;15.90;;
18796;SDS011;9526;52.612;13.300;2023-01-29T03:42:09;30.40;;;14.77;;
18796;SDS011;9526;52.612;13.300;2023-01-29T03:44:42;35.20;;;16.10;;
18796;SDS011;9526;52.612;13.300;2023-01-29T03:47:23;34.87;;;16.33;;
18796;SDS011;9526;52.612;13.300;2023-01-29T03:50:02;31.87;;;13.93;;
18796;SDS011;9526;52.612;13.300;2023-01-29T03:52:35;33.47;;;17.33;;
18796;SDS011;9526;52.612;13.300;2023-01-29T03:55:09;37.07;;;17.83;;
18796;SDS011;9526;52.612;13.300;2023-01-29T03:57:38;35.70;;;16.93;;
18796;SDS011;9526;52.612;13.300;2023-01-29T04:00:10;33.03;;;13.93;;
18796;SDS011;9526;52.612;13.300;2023-01-29T04:02:51;35.03;;;17.53;;
18796;SDS011;9526;52.612;13.300;2023-01-29T04:05:26;36.13;;;16.80;;
18796;SDS011;9526;52.612;13.300;2023-01-29T04:08:05;36.03;;;17.93;;
18796;SDS011;9526;52.612;13.300;2023-01-29T04:10:33;39.20;;;17.70;;
18796;SDS011;9526;52.612;13.300;2023-01-29T04:13:00;37.17;;;18.33;;
18796;SDS011;9526;52.612;13.300;2023-01-29T04:15:29;34.77;;;16.63;;
18796;SDS011;9526;52.612;13.300;2023-01-29T04:17:58;34.47;;;17.40;;
18796;SDS011;9526;52.612;13.300;2023-01-29T04:20:48;34.50;;;15.57;;
18796;SDS011;9526;52.612;13.300;2023-01-29T04:23:19;40.30;;;18.13;;
18796;SDS011;9526;52.612;13.300;2023-01-29T04:25:46;34.60;;;16.10;;
18796;SDS011;9526;52.612;13.300;2023-01-29T04:28:19;38.33;;;17.70;;
18796;SDS011;9526;52.612;13.300;2023-01-29T04:30:49;39.47;;;17.83;;
18796;SDS011;9526;52.612;13.300;2023-01-29T04:33:20;41.50;;;18.57;;
18796;SDS011;9526;52.612;13.300;2023-01-29T04:35:56;39.03;;;18.20;;
18796;SDS011;9526;52.612;13.300;2023-01-29T04:38:40;36.73;;;18.77;;
18796;SDS011;9526;52.612;13.300;2023-01-29T04:41:19;39.13;;;18.40;;
18796;SDS011;9526;52.612;13.300;2023-01-29T04:43:50;41.00;;;19.40;;
18796;SDS011;9526;52.612;13.300;2023-01-29T04:46:24;41.97;;;20.20;;
18796;SDS011;9526;52.612;13.300;2023-01-29T04:49:02;43.77;;;19.13;;
18796;SDS011;9526;52.612;13.300;2023-01-29T04:51:42;42.20;;;19.53;;
18796;SDS011;9526;52.612;13.300;2023-01-29T04:54:13;38.53;;;18.87;;
18796;SDS011;9526;52.612;13.300;2023-01-29T04:56:47;39.93;;;19.33;;
18796;SDS011;9526;52.612;13.300;2023-01-29T04:59:18;38.83;;;18.13;;
18796;SDS011;9526;52.612;13.300;2023-01-29T05:01:47;39.10;;;18.50;;
18796;SDS011;9526;52.612;13.300;2023-01-29T05:04:13;42.37;;;20.83;;
18796;SDS011;9526;52.612;13.300;2023-01-29T05:06:41;46.13;;;19.13;;
18796;SDS011;9526;52.612;13.300;2023-01-29T05:09:07;37.47;;;18.67;;
18796;SDS011;9526;52.612;13.300;2023-01-29T05:11:31;42.17;;;18.47;;
18796;SDS011;9526;52.612;13.300;2023-01-29T05:13:56;43.83;;;20.03;;
18796;SDS011;9526;52.612;13.300;2023-01-29T05:16:21;44.40;;;19.63;;
18796;SDS011;9526;52.612;13.300;2023-01-29T05:18:49;43.07;;;18.57;;
18796;SDS011;9526;52.612;13.300;2023-01-29T05:21:15;41.17;;;20.37;;
18796;SDS011;9526;52.612;13.300;2023-01-29T05:23:39;40.60;;;18.73;;
18796;SDS011;9526;52.612;13.300;2023-01-29T05:26:18;41.80;;;19.83;;
18796;SDS011;9526;52.612;13.300;2023-01-29T05:29:00;46.93;;;20.50;;
18796;SDS011;9526;52.612;13.300;2023-01-29T05:31:24;47.40;;;21.53;;
18796;SDS011;9526;52.612;13.300;2023-01-29T05:33:47;42.53;;;19.37;;
18796;SDS011;9526;52.612;13.300;2023-01-29T05:36:11;48.50;;;21.07;;
18796;SDS011;9526;52.612;13.300;2023-01-29T05:38:36;43.07;;;19.90;;
18796;SDS011;9526;52.612;13.300;2023-01-29T05:41:00;41.47;;;19.30;;
18796;SDS011;9526;52.612;13.300;2023-01-29T05:43:24;49.17;;;19.97;;
18796;SDS011;9526;52.612;13.300;2023-01-29T05:45:51;46.73;;;20.77;;
18796;SDS011;9526;52.612;13.300;2023-01-29T05:48:16;43.83;;;18.83;;
18796;SDS011;9526;52.612;13.300;2023-01-29T05:50:39;40.93;;;18.17;;
18796;SDS011;9526;52.612;13.300;2023-01-29T05:53:03;42.37;;;19.60;;
18796;SDS011;9526;52.612;13.300;2023-01-29T05:55:28;44.63;;;20.00;;
18796;SDS011;9526;52.612;13.300;2023-01-29T05:57:52;44.70;;;20.70;;
18796;SDS011;9526;52.612;13.300;2023-01-29T06:00:16;48.73;;;20.27;;
18796;SDS011;9526;52.612;13.300;2023-01-29T06:02:41;37.60;;;17.83;;
18796;SDS011;9526;52.612;13.300;2023-01-29T06:05:05;42.97;;;19.90;;
18796;SDS011;9526;52.612;13.300;2023-01-29T06:07:30;42.67;;;17.33;;
18796;SDS011;9526;52.612;13.300;2023-01-29T06:09:54;46.80;;;21.23;;
18796;SDS011;9526;52.612;13.300;2023-01-29T06:12:19;49.93;;;21.30;;
18796;SDS011;9526;52.612;13.300;2023-01-29T06:14:43;45.10;;;20.67;;
18796;SDS011;9526;52.612;13.300;2023-01-29T06:17:06;45.53;;;21.27;;
18796;SDS011;9526;52.612;13.300;2023-01-29T06:19:30;45.60;;;20.93;;
18796;SDS011;9526;52.612;13.300;2023-01-29T06:21:54;47.80;;;21.07;;
18796;SDS011;9526;52.612;13.300;2023-01-29T06:24:18;44.73;;;19.40;;
18796;SDS011;9526;52.612;13.300;2023-01-29T06:26:41;45.23;;;20.83;;
18796;SDS011;9526;52.612;13.300;2023-01-29T06:29:06;46.70;;;20.33;;
18796;SDS011;9526;52.612;13.300;2023-01-29T06:31:30;31.60;;;13.33;;
18796;SDS011;9526;52.612;13.300;2023-01-29T06:33:59;47.70;;;21.60;;
18796;SDS011;9526;52.612;13.300;2023-01-29T06:36:24;46.37;;;20.47;;
18796;SDS011;9526;52.612;13.300;2023-01-29T06:38:47;46.57;;;19.73;;
18796;SDS011;9526;52.612;13.300;2023-01-29T06:41:12;49.53;;;21.70;;
18796;SDS011;9526;52.612;13.300;2023-01-29T06:43:41;49.20;;;22.17;;
18796;SDS011;9526;52.612;13.300;2023-01-29T06:46:07;46.30;;;20.57;;
18796;SDS011;9526;52.612;13.300;2023-01-29T06:48:31;48.73;;;21.53;;
18796;SDS011;9526;52.612;13.300;2023-01-29T06:50:55;44.80;;;20.67;;
18796;SDS011;9526;52.612;13.300;2023-01-29T06:53:23;50.40;;;21.83;;
18796;SDS011;9526;52.612;13.300;2023-01-29T06:55:49;46.90;;;19.47;;
18796;SDS011;9526;52.612;13.300;2023-01-29T06:58:13;44.63;;;20.10;;
18796;SDS011;9526;52.612;13.300;2023-01-29T07:00:37;47.13;;;20.50;;
18796;SDS011;9526;52.612;13.300;2023-01-29T07:03:02;44.90;;;20.37;;
18796;SDS011;9526;52.612;13.300;2023-01-29T07:05:27;45.23;;;20.07;;
18796;SDS011;9526;52.612;13.300;2023-01-29T07:07:50;46.83;;;20.80;;
18796;SDS011;9526;52.612;13.300;2023-01-29T07:10:14;49.67;;;21.43;;
18796;SDS011;9526;52.612;13.300;2023-01-29T07:12:39;47.67;;;22.13;;
18796;SDS011;9526;52.612;13.300;2023-01-29T07:15:03;45.30;;;19.97;;
18796;SDS011;9526;52.612;13.300;2023-01-29T07:17:28;49.83;;;21.13;;
18796;SDS011;9526;52.612;13.300;2023-01-29T07:19:53;50.03;;;21.63;;
18796;SDS011;9526;52.612;13.300;2023-01-29T07:22:17;53.47;;;22.93;;
18796;SDS011;9526;52.612;13.300;2023-01-29T07:24:41;53.70;;;22.13;;
18796;SDS011;9526;52.612;13.300;2023-01-29T07:27:05;51.57;;;21.73;;
18796;SDS011;9526;52.612;13.300;2023-01-29T07:29:29;53.37;;;21.47;;
18796;SDS011;9526;52.612;13.300;2023-01-29T07:31:52;48.17;;;21.57;;
18796;SDS011;9526;52.612;13.300;2023-01-29T07:34:16;48.77;;;21.77;;
18796;SDS011;9526;52.612;13.300;2023-01-29T07:36:41;46.47;;;19.50;;
18796;SDS011;9526;52.612;13.300;2023-01-29T07:39:05;51.87;;;21.33;;
18796;SDS011;9526;52.612;13.300;2023-01-29T07:41:29;43.23;;;18.97;;
18796;SDS011;9526;52.612;13.300;2023-01-29T07:43:53;48.60;;;21.87;;
18796;SDS011;9526;52.612;13.300;2023-01-29T07:46:17;52.33;;;21.70;;
18796;SDS011;9526;52.612;13.300;2023-01-29T07:48:40;46.33;;;20.50;;
18796;SDS011;9526;52.612;13.300;2023-01-29T07:51:04;49.17;;;22.10;;
18796;SDS011;9526;52.612;13.300;2023-01-29T07:53:30;46.03;;;21.90;;
18796;SDS011;9526;52.612;13.300;2023-01-29T07:55:54;51.47;;;21.97;;
18796;SDS011;9526;52.612;13.300;2023-01-29T07:58:18;50.50;;;23.13;;
18796;SDS011;9526;52.612;13.300;2023-01-29T08:00:42;50.30;;;21.37;;
18796;SDS011;9526;52.612;13.300;2023-01-29T08:03:10;47.87;;;21.47;;
18796;SDS011;9526;52.612;13.300;2023-01-29T08:05:36;45.00;;;19.53;;
18796;SDS011;9526;52.612;13.300;2023-01-29T08:08:00;48.77;;;20.53;;
18796;SDS011;9526;52.612;13.300;2023-01-29T08:10:29;52.07;;;22.33;;
18796;SDS011;9526;52.612;13.300;2023-01-29T08:12:54;46.70;;;21.77;;
18796;SDS011;9526;52.612;13.300;2023-01-29T08:15:18;55.07;;;22.23;;
18796;SDS011;9526;52.612;13.300;2023-01-29T08:17:42;48.33;;;20.63;;
18796;SDS011;9526;52.612;13.300;2023-01-29T08:20:18;39.07;;;17.20;;
18796;SDS011;9526;52.612;13.300;2023-01-29T08:22:43;49.87;;;21.20;;
18796;SDS011;9526;52.612;13.300;2023-01-29T08:25:08;48.87;;;21.40;;
18796;SDS011;9526;52.612;13.300;2023-01-29T08:27:33;52.30;;;23.10;;
18796;SDS011;9526;52.612;13.300;2023-01-29T08:29:58;52.57;;;21.70;;
18796;SDS011;9526;52.612;13.300;2023-01-29T08:32:22;52.53;;;22.70;;
18796;SDS011;9526;52.612;13.300;2023-01-29T08:34:45;52.63;;;22.40;;
18796;SDS011;9526;52.612;13.300;2023-01-29T08:37:09;52.53;;;22.93;;
18796;SDS011;9526;52.612;13.300;2023-01-29T08:39:33;50.13;;;22.13;;
18796;SDS011;9526;52.612;13.300;2023-01-29T08:41:57;49.67;;;22.03;;
18796;SDS011;9526;52.612;13.300;2023-01-29T08:44:22;49.50;;;21.83;;
18796;SDS011;9526;52.612;13.300;2023-01-29T08:46:46;51.37;;;21.90;;
18796;SDS011;9526;52.612;13.300;2023-01-29T08:49:10;46.40;;;20.10;;
18796;SDS011;9526;52.612;13.300;2023-01-29T08:51:34;52.87;;;23.03;;
18796;SDS011;9526;52.612;13.300;2023-01-29T08:53:57;41.87;;;18.10;;
18796;SDS011;9526;52.612;13.300;2023-01-29T08:56:21;58.77;;;22.20;;
18796;SDS011;9526;52.612;13.300;2023-01-29T08:58:45;51.77;;;21.90;;
18796;SDS011;9526;52.612;13.300;2023-01-29T09:01:11;46.60;;;21.67;;
18796;SDS011;9526;52.612;13.300;2023-01-29T09:03:36;51.00;;;21.57;;
18796;SDS011;9526;52.612;13.300;2023-01-29T09:06:01;42.70;;;20.17;;
18796;SDS011;9526;52.612;13.300;2023-01-29T09:08:26;46.50;;;21.27;;
18796;SDS011;9526;52.612;13.300;2023-01-29T09:10:49;50.67;;;20.77;;
18796;SDS011;9526;52.612;13.300;2023-01-29T09:13:13;49.13;;;21.87;;
18796;SDS011;9526;52.612;13.300;2023-01-29T09:15:37;53.10;;;21.63;;
18796;SDS011;9526;52.612;13.300;2023-01-29T09:18:03;47.00;;;22.70;;
18796;SDS011;9526;52.612;13.300;2023-01-29T09:20:27;41.53;;;18.20;;
18796;SDS011;9526;52.612;13.300;2023-01-29T09:22:51;51.37;;;21.93;;
18796;SDS011;9526;52.612;13.300;2023-01-29T09:25:17;49.07;;;21.60;;
18796;SDS011;9526;52.612;13.300;2023-01-29T09:27:40;43.90;;;20.90;;
18796;SDS011;9526;52.612;13.300;2023-01-29T09:30:05;46.53;;;20.77;;
18796;SDS011;9526;52.612;13.300;2023-01-29T09:32:29;46.60;;;18.67;;
18796;SDS011;9526;52.612;13.300;2023-01-29T09:35:15;52.37;;;23.23;;
18796;SDS011;9526;52.612;13.300;2023-01-29T09:37:39;44.70;;;20.90;;
18796;SDS011;9526;52.612;13.300;2023-01-29T09:40:03;48.17;;;21.77;;
18796;SDS011;9526;52.612;13.300;2023-01-29T09:42:29;43.67;;;21.07;;
18796;SDS011;9526;52.612;13.300;2023-01-29T09:45:03;49.60;;;20.80;;
18796;SDS011;9526;52.612;13.300;2023-01-29T09:47:34;49.83;;;21.53;;
18796;SDS011;9526;52.612;13.300;2023-01-29T09:49:59;44.23;;;20.40;;
18796;SDS011;9526;52.612;13.300;2023-01-29T09:52:28;47.07;;;20.13;;
18796;SDS011;9526;52.612;13.300;2023-01-29T09:54:56;46.20;;;20.80;;
18796;SDS011;9526;52.612;13.300;2023-01-29T09:57:26;46.83;;;21.27;;
18796;SDS011;9526;52.612;13.300;2023-01-29T09:59:58;44.83;;;21.03;;
18796;SDS011;9526;52.612;13.300;2023-01-29T10:02:30;41.70;;;20.40;;
18796;SDS011;9526;52.612;13.300;2023-01-29T10:05:34;44.00;;;20.03;;
18796;SDS011;9526;52.612;13.300;2023-01-29T10:08:18;40.73;;;19.83;;
18796;SDS011;9526;52.612;13.300;2023-01-29T10:11:06;47.33;;;21.67;;
18796;SDS011;9526;52.612;13.300;2023-01-29T10:13:43;40.60;;;15.47;;
18796;SDS011;9526;52.612;13.300;2023-01-29T10:16:20;40.03;;;19.60;;
18796;SDS011;9526;52.612;13.300;2023-01-29T10:19:03;40.73;;;19.07;;
18796;SDS011;9526;52.612;13.300;2023-01-29T10:21:51;36.10;;;15.97;;
18796;SDS011;9526;52.612;13.300;2023-01-29T10:24:51;39.57;;;18.47;;
18796;SDS011;9526;52.612;13.300;2023-01-29T10:27:19;36.73;;;18.70;;
18796;SDS011;9526;52.612;13.300;2023-01-29T10:29:44;38.47;;;19.00;;
18796;SDS011;9526;52.612;13.300;2023-01-29T10:32:12;36.77;;;18.53;;
18796;SDS011;9526;52.612;13.300;2023-01-29T10:34:39;37.63;;;18.03;;
18796;SDS011;9526;52.612;13.300;2023-01-29T10:37:11;36.03;;;17.60;;
18796;SDS011;9526;52.612;13.300;2023-01-29T10:39:40;38.00;;;17.43;;
18796;SDS011;9526;52.612;13.300;2023-01-29T10:42:08;37.10;;;18.10;;
18796;SDS011;9526;52.612;13.300;2023-01-29T10:44:48;36.60;;;17.43;;
18796;SDS011;9526;52.612;13.300;2023-01-29T10:47:29;28.33;;;14.87;;
18796;SDS011;9526;52.612;13.300;2023-01-29T10:50:17;35.33;;;17.37;;
18796;SDS011;9526;52.612;13.300;2023-01-29T10:53:00;34.70;;;16.83;;
18796;SDS011;9526;52.612;13.300;2023-01-29T10:55:44;32.90;;;15.93;;
18796;SDS011;9526;52.612;13.300;2023-01-29T10:58:21;32.87;;;16.23;;
18796;SDS011;9526;52.612;13.300;2023-01-29T11:00:52;32.43;;;17.17;;
18796;SDS011;9526;52.612;13.300;2023-01-29T11:03:17;32.47;;;16.33;;
18796;SDS011;9526;52.612;13.300;2023-01-29T11:05:50;34.57;;;16.37;;
18796;SDS011;9526;52.612;13.300;2023-01-29T11:08:21;32.80;;;15.93;;
18796;SDS011;9526;52.612;13.300;2023-01-29T11:10:52;27.80;;;15.10;;
18796;SDS011;9526;52.612;13.300;2023-01-29T11:13:28;31.63;;;16.00;;
18796;SDS011;9526;52.612;13.300;2023-01-29T11:15:57;22.50;;;10.83;;
18796;SDS011;9526;52.612;13.300;2023-01-29T11:18:20;32.53;;;16.13;;
18796;SDS011;9526;52.612;13.300;2023-01-29T11:20:44;32.70;;;15.57;;
18796;SDS011;9526;52.612;13.300;2023-01-29T11:23:22;32.47;;;15.93;;
18796;SDS011;9526;52.612;13.300;2023-01-29T11:25:50;29.13;;;15.23;;
18796;SDS011;9526;52.612;13.300;2023-01-29T11:28:16;28.57;;;15.10;;
18796;SDS011;9526;52.612;13.300;2023-01-29T11:31:00;27.87;;;15.40;;
18796;SDS011;9526;52.612;13.300;2023-01-29T11:33:24;29.80;;;16.10;;
18796;SDS011;9526;52.612;13.300;2023-01-29T11:35:48;28.87;;;15.43;;
18796;SDS011;9526;52.612;13.300;2023-01-29T11:38:17;27.33;;;15.13;;
18796;SDS011;9526;52.612;13.300;2023-01-29T11:40:43;25.30;;;11.93;;
18796;SDS011;9526;52.612;13.300;2023-01-29T11:43:11;30.37;;;15.63;;
18796;SDS011;9526;52.612;13.300;2023-01-29T11:45:43;28.10;;;15.20;;
18796;SDS011;9526;52.612;13.300;2023-01-29T11:48:11;26.83;;;14.90;;
18796;SDS011;9526;52.612;13.300;2023-01-29T11:50:38;17.17;;;8.07;;
18796;SDS011;9526;52.612;13.300;2023-01-29T11:53:02;28.00;;;14.63;;
18796;SDS011;9526;52.612;13.300;2023-01-29T11:55:29;23.70;;;9.67;;
18796;SDS011;9526;52.612;13.300;2023-01-29T11:58:11;25.90;;;12.87;;
18796;SDS011;9526;52.612;13.300;2023-01-29T12:00:39;26.83;;;14.83;;
18796;SDS011;9526;52.612;13.300;2023-01-29T12:03:11;28.90;;;15.10;;
18796;SDS011;9526;52.612;13.300;2023-01-29T12:05:38;26.50;;;14.03;;
18796;SDS011;9526;52.612;13.300;2023-01-29T12:08:09;25.93;;;14.20;;
18796;SDS011;9526;52.612;13.300;2023-01-29T12:10:39;24.93;;;12.00;;
18796;SDS011;9526;52.612;13.300;2023-01-29T12:13:05;28.40;;;14.97;;
18796;SDS011;9526;52.612;13.300;2023-01-29T12:15:43;28.43;;;15.33;;
18796;SDS011;9526;52.612;13.300;2023-01-29T12:18:11;30.47;;;14.77;;
18796;SDS011;9526;52.612;13.300;2023-01-29T12:20:43;25.93;;;12.73;;
18796;SDS011;9526;52.612;13.300;2023-01-29T12:23:20;26.13;;;14.37;;
18796;SDS011;9526;52.612;13.300;2023-01-29T12:25:55;25.73;;;14.40;;
18796;SDS011;9526;52.612;13.300;2023-01-29T12:28:30;27.70;;;15.10;;
18796;SDS011;9526;52.612;13.300;2023-01-29T12:31:09;31.70;;;14.77;;
18796;SDS011;9526;52.612;13.300;2023-01-29T12:33:45;28.80;;;15.40;;
18796;SDS011;9526;52.612;13.300;2023-01-29T12:36:17;28.23;;;14.77;;
18796;SDS011;9526;52.612;13.300;2023-01-29T12:38:47;28.97;;;15.37;;
18796;SDS011;9526;52.612;13.300;2023-01-29T12:41:18;25.97;;;13.50;;
18796;SDS011;9526;52.612;13.300;2023-01-29T12:44:01;29.47;;;14.30;;
18796;SDS011;9526;52.612;13.300;2023-01-29T12:46:42;26.70;;;15.13;;
18796;SDS011;9526;52.612;13.300;2023-01-29T12:49:12;29.47;;;12.67;;
18796;SDS011;9526;52.612;13.300;2023-01-29T12:51:42;29.90;;;15.73;;
18796;SDS011;9526;52.612;13.300;2023-01-29T12:54:16;25.60;;;14.37;;
18796;SDS011;9526;52.612;13.300;2023-01-29T12:56:45;30.67;;;14.97;;
18796;SDS011;9526;52.612;13.300;2023-01-29T12:59:14;24.07;;;12.13;;
18796;SDS011;9526;52.612;13.300;2023-01-29T13:01:47;29.13;;;13.30;;
18796;SDS011;9526;52.612;13.300;2023-01-29T13:04:15;29.67;;;15.00;;
18796;SDS011;9526;52.612;13.300;2023-01-29T13:06:52;31.47;;;15.13;;
18796;SDS011;9526;52.612;13.300;2023-01-29T13:09:24;29.97;;;16.03;;
18796;SDS011;9526;52.612;13.300;2023-01-29T13:11:54;29.50;;;14.83;;
18796;SDS011;9526;52.612;13.300;2023-01-29T13:14:23;30.93;;;15.90;;
18796;SDS011;9526;52.612;13.300;2023-01-29T13:16:52;29.70;;;13.57;;
18796;SDS011;9526;52.612;13.300;2023-01-29T13:19:28;27.43;;;12.70;;
18796;SDS011;9526;52.612;13.300;2023-01-29T13:21:58;30.97;;;15.53;;
18796;SDS011;9526;52.612;13.300;2023-01-29T13:24:28;31.57;;;16.13;;
18796;SDS011;9526;52.612;13.300;2023-01-29T13:26:58;29.73;;;15.40;;
18796;SDS011;9526;52.612;13.300;2023-01-29T13:29:23;32.03;;;15.27;;
18796;SDS011;9526;52.612;13.300;2023-01-29T13:31:49;33.07;;;16.07;;
18796;SDS011;9526;52.612;13.300;2023-01-29T13:34:18;29.90;;;15.70;;
18796;SDS011;9526;52.612;13.300;2023-01-29T13:36:45;35.83;;;16.47;;
18796;SDS011;9526;52.612;13.300;2023-01-29T13:39:18;33.47;;;15.80;;
18796;SDS011;9526;52.612;13.300;2023-01-29T13:41:46;29.57;;;14.53;;
18796;SDS011;9526;52.612;13.300;2023-01-29T13:44:19;34.10;;;16.40;;
18796;SDS011;9526;52.612;13.300;2023-01-29T13:46:47;27.07;;;15.33;;
18796;SDS011;9526;52.612;13.300;2023-01-29T13:49:22;31.80;;;16.80;;
18796;SDS011;9526;52.612;13.300;2023-01-29T13:51:53;34.03;;;16.93;;
18796;SDS011;9526;52.612;13.300;2023-01-29T13:54:19;32.70;;;16.07;;
18796;SDS011;9526;52.612;13.300;2023-01-29T13:56:55;31.13;;;15.73;;
18796;SDS011;9526;52.612;13.300;2023-01-29T13:59:22;29.33;;;14.90;;
18796;SDS011;9526;52.612;13.300;2023-01-29T14:02:25;30.47;;;15.60;;
18796;SDS011;9526;52.612;13.300;2023-01-29T14:04:50;33.90;;;16.73;;
18796;SDS011;9526;52.612;13.300;2023-01-29T14:07:54;30.50;;;14.60;;
18796;SDS011;9526;52.612;13.300;2023-01-29T14:10:20;34.10;;;16.40;;
18796;SDS011;9526;52.612;13.300;2023-01-29T14:13:24;32.87;;;17.13;;
18796;SDS011;9526;52.612;13.300;2023-01-29T14:18:59;34.90;;;17.17;;
18796;SDS011;9526;52.612;13.300;2023-01-29T14:21:25;37.00;;;18.33;;
18796;SDS011;9526;52.612;13.300;2023-01-29T14:23:53;38.27;;;18.83;;
18796;SDS011;9526;52.612;13.300;2023-01-29T14:26:21;34.57;;;17.93;;
18796;SDS011;9526;52.612;13.300;2023-01-29T14:28:52;34.63;;;16.53;;
18796;SDS011;9526;52.612;13.300;2023-01-29T14:31:27;39.40;;;18.60;;
18796;SDS011;9526;52.612;13.300;2023-01-29T14:34:03;40.70;;;19.30;;
18796;SDS011;9526;52.612;13.300;2023-01-29T14:36:37;41.33;;;19.00;;
18796;SDS011;9526;52.612;13.300;2023-01-29T14:39:02;32.37;;;14.90;;
18796;SDS011;9526;52.612;13.300;2023-01-29T14:41:28;34.47;;;15.70;;